createdAt,value
2023-01-15T00:02:24.633Z,3.58
2023-01-15T00:04:52.596Z,2.15
2023-01-15T00:07:19.965Z,1.73
2023-01-15T00:09:47.336Z,4.07
2023-01-15T00:12:14.752Z,5.00
2023-01-15T00:14:42.113Z,2.55
2023-01-15T00:17:09.343Z,1.77
2023-01-15T00:19:36.644Z,6.03
2023-01-15T00:22:03.809Z,2.70
2023-01-15T00:24:49.489Z,7.80
2023-01-15T00:27:35.002Z,2.65
2023-01-15T00:30:02.432Z,1.52
2023-01-15T00:32:29.957Z,1.67
2023-01-15T00:34:59.496Z,3.15
2023-01-15T00:37:26.954Z,3.38
2023-01-15T00:39:54.148Z,4.35
2023-01-15T00:42:21.819Z,7.18
2023-01-15T00:44:49.123Z,11.10
2023-01-15T00:47:16.282Z,4.60
2023-01-15T00:49:44.141Z,1.27
2023-01-15T00:52:12.348Z,1.17
2023-01-15T00:54:39.782Z,1.63
2023-01-15T00:57:07.119Z,7.60
2023-01-15T00:59:34.357Z,1.63
2023-01-15T01:02:01.455Z,1.08
2023-01-15T01:04:29.084Z,1.75
2023-01-15T01:06:56.569Z,1.33
2023-01-15T01:09:23.933Z,8.75
2023-01-15T01:11:51.275Z,2.22
2023-01-15T01:14:18.624Z,2.53
2023-01-15T01:16:46.335Z,6.53
2023-01-15T01:19:19.768Z,2.20
2023-01-15T01:21:48.776Z,7.82
2023-01-15T01:24:20.019Z,1.92
2023-01-15T01:26:47.860Z,2.05
2023-01-15T01:29:17.637Z,3.05
2023-01-15T01:31:45.572Z,1.13
2023-01-15T01:34:14.955Z,0.77
2023-01-15T01:36:43.840Z,1.52
2023-01-15T01:39:16.951Z,4.65
2023-01-15T01:41:45.327Z,4.68
2023-01-15T01:44:35.021Z,4.10
2023-01-15T01:47:24.171Z,6.28
2023-01-15T01:50:05.437Z,2.17
2023-01-15T01:52:44.744Z,4.88
2023-01-15T01:55:14.644Z,8.25
2023-01-15T01:57:42.657Z,1.77
2023-01-15T02:00:11.892Z,1.90
2023-01-15T02:02:39.935Z,1.30
2023-01-15T02:05:09.638Z,2.58
2023-01-15T02:07:38.046Z,0.95
2023-01-15T02:10:05.758Z,6.97
2023-01-15T02:12:37.601Z,3.03
2023-01-15T02:15:15.619Z,2.92
2023-01-15T02:18:20.514Z,1.67
2023-01-15T02:21:16.821Z,1.65
2023-01-15T02:24:09.570Z,3.30
2023-01-15T02:27:20.985Z,1.95
2023-01-15T02:30:09.124Z,2.63
2023-01-15T02:32:44.865Z,3.00
2023-01-15T02:35:24.749Z,2.80
2023-01-15T02:37:54.538Z,10.23
2023-01-15T02:40:24.104Z,4.05
2023-01-15T02:42:52.375Z,1.27
2023-01-15T02:45:27.647Z,4.10
2023-01-15T02:50:36.073Z,9.05
2023-01-15T02:53:08.423Z,5.63
2023-01-15T02:55:44.487Z,4.38
2023-01-15T02:58:18.202Z,10.40
2023-01-15T03:00:49.713Z,2.47
2023-01-15T03:03:21.421Z,2.60
2023-01-15T03:06:04.603Z,2.33
2023-01-15T03:08:32.102Z,2.60
2023-01-15T03:11:09.125Z,4.13
2023-01-15T03:13:36.120Z,2.45
2023-01-15T03:16:40.219Z,7.35
2023-01-15T03:19:29.283Z,4.55
2023-01-15T03:22:09.795Z,3.47
2023-01-15T03:24:44.986Z,6.72
2023-01-15T03:27:12.435Z,4.75
2023-01-15T03:29:53.474Z,8.10
2023-01-15T03:32:22.840Z,2.72
2023-01-15T03:34:55.503Z,3.25
2023-01-15T03:37:24.881Z,5.30
2023-01-15T03:39:53.571Z,4.18
2023-01-15T03:42:35.872Z,4.88
2023-01-15T03:45:12.231Z,4.88
2023-01-15T03:48:03.399Z,3.92
2023-01-15T03:50:50.035Z,3.25
2023-01-15T03:53:34.804Z,5.90
2023-01-15T03:56:04.518Z,4.23
2023-01-15T03:58:37.743Z,23.35
2023-01-15T04:01:11.065Z,2.45
2023-01-15T04:03:39.635Z,10.07
2023-01-15T04:06:08.310Z,10.45
2023-01-15T04:08:39.875Z,5.93
2023-01-15T04:11:07.563Z,4.68
2023-01-15T04:13:34.834Z,6.70
2023-01-15T04:16:03.225Z,5.28
2023-01-15T04:18:30.528Z,5.88
2023-01-15T04:20:58.080Z,3.40
2023-01-15T04:23:25.358Z,4.70
2023-01-15T04:25:52.646Z,3.63
2023-01-15T04:28:19.724Z,4.60
2023-01-15T04:30:47.606Z,11.27
2023-01-15T04:33:14.849Z,8.95
2023-01-15T04:35:41.947Z,8.40
2023-01-15T04:38:09.176Z,4.03
2023-01-15T04:40:54.796Z,3.30
2023-01-15T04:43:40.533Z,12.15
2023-01-15T04:46:07.844Z,3.47
2023-01-15T04:48:36.166Z,6.53
2023-01-15T04:51:04.857Z,9.30
2023-01-15T04:53:32.237Z,4.20
2023-01-15T04:56:04.608Z,4.53
2023-01-15T04:58:32.714Z,6.00
2023-01-15T05:01:01.100Z,9.52
2023-01-15T05:03:29.818Z,3.33
2023-01-15T05:06:01.341Z,9.48
2023-01-15T05:08:28.890Z,8.80
2023-01-15T05:10:56.240Z,3.15
2023-01-15T05:13:23.292Z,3.80
2023-01-15T05:15:51.143Z,5.70
2023-01-15T05:18:18.466Z,10.15
2023-01-15T05:20:45.710Z,3.95
2023-01-15T05:23:13.097Z,5.40
2023-01-15T05:25:40.216Z,11.10
2023-01-15T05:28:07.612Z,4.90
2023-01-15T05:30:34.904Z,13.73
2023-01-15T05:33:02.113Z,4.70
2023-01-15T05:35:29.277Z,7.10
2023-01-15T05:37:56.391Z,6.25
2023-01-15T05:40:23.618Z,7.40
2023-01-15T05:42:50.826Z,10.70
2023-01-15T05:45:18.597Z,5.97
2023-01-15T05:47:45.723Z,3.40
2023-01-15T05:50:13.194Z,9.45
2023-01-15T05:52:40.366Z,3.35
2023-01-15T05:55:08.010Z,5.32
2023-01-15T05:57:35.208Z,7.20
2023-01-15T06:00:03.222Z,2.30
2023-01-15T06:02:30.401Z,6.60
2023-01-15T06:04:57.781Z,4.93
2023-01-15T06:07:25.021Z,6.82
2023-01-15T06:09:52.221Z,7.82
2023-01-15T06:12:19.562Z,5.40
2023-01-15T06:14:46.750Z,6.13
2023-01-15T06:17:15.355Z,7.57
2023-01-15T06:19:42.593Z,5.55
2023-01-15T06:22:11.055Z,7.57
2023-01-15T06:24:38.483Z,6.05
2023-01-15T06:27:05.763Z,10.07
2023-01-15T06:29:33.035Z,3.53
2023-01-15T06:32:00.187Z,2.72
2023-01-15T06:34:27.404Z,11.15
2023-01-15T06:36:54.592Z,7.70
2023-01-15T06:39:21.843Z,7.97
2023-01-15T06:42:07.480Z,1.95
2023-01-15T06:47:21.870Z,4.20
2023-01-15T06:49:58.794Z,3.88
2023-01-15T06:52:28.297Z,3.78
2023-01-15T06:54:55.738Z,8.23
2023-01-15T06:57:23.863Z,10.38
2023-01-15T06:59:51.637Z,10.50
2023-01-15T07:02:19.574Z,4.75
2023-01-15T07:04:48.264Z,5.93
2023-01-15T07:07:17.259Z,5.82
2023-01-15T07:09:44.590Z,5.47
2023-01-15T07:12:12.291Z,4.07
2023-01-15T07:14:39.690Z,8.73
2023-01-15T07:17:08.547Z,4.18
2023-01-15T07:19:37.203Z,12.48
2023-01-15T07:22:04.954Z,7.50
2023-01-15T07:24:32.304Z,4.95
2023-01-15T07:26:59.941Z,3.05
2023-01-15T07:29:27.304Z,3.10
2023-01-15T07:31:55.149Z,4.35
2023-01-15T07:34:25.212Z,8.02
2023-01-15T07:36:52.530Z,3.83
2023-01-15T07:39:19.967Z,3.05
2023-01-15T07:42:05.744Z,5.00
2023-01-15T07:44:51.591Z,8.32
2023-01-15T07:47:45.561Z,4.90
2023-01-15T07:50:18.199Z,11.75
2023-01-15T07:52:45.371Z,5.47
2023-01-15T07:55:13.571Z,7.13
2023-01-15T07:57:42.782Z,11.68
2023-01-15T08:00:13.782Z,4.53
2023-01-15T08:02:41.302Z,5.40
2023-01-15T08:05:09.740Z,8.77
2023-01-15T08:07:41.528Z,11.10
2023-01-15T08:10:10.903Z,4.72
2023-01-15T08:12:57.601Z,13.27
2023-01-15T08:15:25.741Z,3.40
2023-01-15T08:17:53.376Z,2.97
2023-01-15T08:20:26.921Z,5.78
2023-01-15T08:22:54.375Z,3.53
2023-01-15T08:25:24.261Z,12.98
2023-01-15T08:27:52.766Z,11.50
2023-01-15T08:30:27.375Z,12.40
2023-01-15T08:33:00.911Z,12.57
2023-01-15T08:35:28.180Z,5.35
2023-01-15T08:37:55.452Z,10.07
2023-01-15T08:40:25.312Z,10.30
2023-01-15T08:42:52.725Z,6.97
2023-01-15T08:45:19.957Z,8.82
2023-01-15T08:47:47.218Z,12.77
2023-01-15T08:50:14.380Z,11.93
2023-01-15T08:52:42.009Z,7.50
2023-01-15T08:55:09.911Z,5.03
2023-01-15T08:57:38.726Z,10.10
2023-01-15T09:00:07.177Z,7.32
2023-01-15T09:02:34.272Z,3.70
2023-01-15T09:05:01.547Z,15.05
2023-01-15T09:07:28.873Z,6.10
2023-01-15T09:09:56.056Z,9.82
2023-01-15T09:12:27.684Z,8.60
2023-01-15T09:14:59.117Z,5.80
2023-01-15T09:17:29.553Z,10.00
2023-01-15T09:19:56.650Z,11.02
2023-01-15T09:22:24.186Z,9.38
2023-01-15T09:24:51.579Z,5.10
2023-01-15T09:27:18.933Z,7.82
2023-01-15T09:29:46.511Z,11.88
2023-01-15T09:32:14.019Z,11.23
2023-01-15T09:34:41.111Z,3.40
2023-01-15T09:37:08.403Z,14.38
2023-01-15T09:39:35.641Z,10.57
2023-01-15T09:42:08.780Z,12.35
2023-01-15T09:44:47.946Z,17.73
2023-01-15T09:47:32.883Z,6.25
2023-01-15T09:50:19.087Z,8.63
2023-01-15T09:53:13.900Z,6.75
2023-01-15T09:55:49.603Z,8.90
2023-01-15T09:58:26.398Z,7.20
2023-01-15T10:00:54.263Z,6.05
2023-01-15T10:03:24.672Z,2.80
2023-01-15T10:06:06.988Z,7.15
2023-01-15T10:08:43.153Z,2.72
2023-01-15T10:11:16.425Z,5.05
2023-01-15T10:13:55.894Z,4.07
2023-01-15T10:16:25.879Z,2.42
2023-01-15T10:18:54.280Z,2.30
2023-01-15T10:21:54.896Z,4.22
2023-01-15T10:24:30.687Z,2.60
2023-01-15T10:26:59.612Z,3.85
2023-01-15T10:30:11.671Z,7.65
2023-01-15T10:33:01.639Z,5.60
2023-01-15T10:35:55.385Z,11.63
2023-01-15T10:38:31.009Z,8.02
2023-01-15T10:41:10.167Z,1.77
2023-01-15T10:43:57.881Z,1.90
2023-01-15T10:46:33.694Z,8.23
2023-01-15T10:49:06.553Z,1.67
2023-01-15T10:51:42.946Z,4.93
2023-01-15T10:54:20.436Z,5.10
2023-01-15T10:57:54.266Z,8.88
2023-01-15T11:00:26.957Z,5.95
2023-01-15T11:03:09.325Z,2.83
2023-01-15T11:05:38.943Z,4.88
2023-01-15T11:08:54.907Z,3.63
2023-01-15T11:11:20.726Z,4.15
2023-01-15T11:14:16.433Z,3.92
2023-01-15T11:17:02.773Z,13.23
2023-01-15T11:19:42.879Z,3.85
2023-01-15T11:22:20.096Z,4.25
2023-01-15T11:24:55.596Z,6.05
2023-01-15T11:27:29.037Z,5.78
2023-01-15T11:30:01.718Z,4.30
2023-01-15T11:32:34.662Z,4.72
2023-01-15T11:35:14.353Z,8.77
2023-01-15T11:37:41.569Z,5.10
2023-01-15T11:40:21.720Z,5.82
2023-01-15T11:43:09.106Z,3.10
2023-01-15T11:46:09.782Z,5.65
2023-01-15T11:49:07.007Z,2.33
2023-01-15T11:51:42.362Z,9.15
2023-01-15T11:56:43.726Z,5.63
2023-01-15T11:59:19.099Z,12.55
2023-01-15T12:02:00.523Z,2.45
2023-01-15T12:04:37.965Z,3.47
2023-01-15T12:07:07.126Z,2.60
2023-01-15T12:10:06.803Z,4.75
2023-01-15T12:12:52.543Z,5.22
2023-01-15T12:21:15.854Z,9.63
2023-01-15T12:24:03.286Z,5.13
2023-01-15T12:26:32.297Z,5.88
2023-01-15T12:29:11.592Z,4.55
2023-01-15T12:31:47.269Z,3.42
2023-01-15T12:34:25.471Z,3.75
2023-01-15T12:37:01.759Z,6.13
2023-01-15T12:39:50.270Z,4.60
2023-01-15T12:42:39.500Z,16.35
2023-01-15T12:45:12.391Z,9.68
2023-01-15T12:48:02.867Z,6.55
2023-01-15T12:50:51.207Z,4.07
2023-01-15T12:53:24.376Z,6.95
2023-01-15T12:55:58.088Z,5.65
2023-01-15T12:58:47.234Z,3.78
2023-01-15T13:01:33.894Z,4.75
2023-01-15T13:04:25.694Z,8.27
2023-01-15T13:06:58.563Z,5.20
2023-01-15T13:09:45.984Z,6.45
2023-01-15T13:12:16.386Z,5.57
2023-01-15T13:14:46.419Z,10.02
2023-01-15T13:17:36.887Z,1.70
2023-01-15T13:20:19.955Z,4.63
2023-01-15T13:23:19.203Z,5.30
2023-01-15T13:26:21.747Z,3.00
2023-01-15T13:29:05.784Z,2.53
2023-01-15T13:31:48.687Z,5.38
2023-01-15T13:34:33.951Z,2.10
2023-01-15T13:37:27.573Z,2.20
2023-01-15T13:40:18.624Z,2.85
2023-01-15T13:42:48.598Z,4.25
2023-01-15T13:45:49.912Z,6.93
2023-01-15T13:48:21.799Z,4.25
2023-01-15T13:50:59.480Z,5.97
2023-01-15T13:53:34.136Z,4.88
2023-01-15T13:56:07.317Z,6.75
2023-01-15T13:58:39.195Z,2.00
2023-01-15T14:01:09.215Z,5.78
2023-01-15T14:03:38.567Z,5.82
2023-01-15T14:06:08.685Z,5.38
2023-01-15T14:08:41.804Z,9.25
2023-01-15T14:11:47.869Z,4.57
2023-01-15T14:14:23.987Z,4.43
2023-01-15T14:17:19.864Z,2.28
2023-01-15T14:20:02.038Z,2.88
2023-01-15T14:22:35.068Z,3.35
2023-01-15T14:25:14.435Z,6.50
2023-01-15T14:28:02.431Z,5.18
2023-01-15T14:30:47.121Z,12.57
2023-01-15T14:33:44.618Z,5.20
2023-01-15T14:36:21.878Z,2.90
2023-01-15T14:38:52.984Z,8.43
2023-01-15T14:41:31.218Z,3.13
2023-01-15T14:44:01.878Z,6.18
2023-01-15T14:46:41.939Z,4.32
2023-01-15T14:49:32.483Z,7.60
2023-01-15T14:52:00.014Z,126.97
2023-01-15T14:54:29.086Z,132.32
2023-01-15T14:57:00.438Z,57.13
2023-01-15T14:59:53.099Z,7.25
2023-01-15T15:02:31.824Z,5.70
2023-01-15T15:05:00.714Z,6.43
2023-01-15T15:07:33.865Z,6.88
2023-01-15T15:10:33.128Z,4.00
2023-01-15T15:13:06.462Z,12.10
2023-01-15T15:15:40.299Z,11.43
2023-01-15T15:18:13.208Z,5.57
2023-01-15T15:20:53.286Z,12.13
2023-01-15T15:23:32.397Z,3.58
2023-01-15T15:26:39.647Z,5.82
2023-01-15T15:29:13.382Z,8.10
2023-01-15T15:31:56.488Z,7.30
2023-01-15T15:34:51.376Z,6.55
2023-01-15T15:37:27.653Z,1.38
2023-01-15T15:40:06.211Z,4.10
2023-01-15T15:42:59.848Z,3.88
2023-01-15T15:45:47.758Z,12.45
2023-01-15T15:48:37.634Z,5.72
2023-01-15T15:51:06.404Z,6.00
2023-01-15T15:53:33.642Z,4.20
2023-01-15T15:56:03.027Z,8.68
2023-01-15T15:58:36.970Z,5.97
2023-01-15T16:01:04.441Z,6.75
2023-01-15T16:03:33.540Z,7.07
2023-01-15T16:06:03.178Z,5.55
2023-01-15T16:08:35.481Z,5.03
2023-01-15T16:11:12.695Z,2.67
2023-01-15T16:13:46.847Z,516.88
2023-01-15T16:16:16.844Z,175.25
2023-01-15T16:18:53.358Z,32.33
2023-01-15T16:21:28.490Z,9.13
2023-01-15T16:24:02.716Z,7.15
2023-01-15T16:26:42.872Z,1.75
2023-01-15T16:29:37.961Z,2.47
2023-01-15T16:32:14.260Z,12.07
2023-01-15T16:34:41.722Z,13.02
2023-01-15T16:37:30.855Z,2.08
2023-01-15T16:40:01.138Z,4.88
2023-01-15T16:42:32.597Z,4.25
2023-01-15T16:45:03.699Z,6.28
2023-01-15T16:47:34.672Z,4.05
2023-01-15T16:50:24.372Z,9.48
2023-01-15T16:52:56.282Z,4.88
2023-01-15T16:55:42.171Z,9.80
2023-01-15T16:58:16.743Z,14.45
2023-01-15T17:00:53.451Z,5.28
2023-01-15T17:03:27.544Z,10.93
2023-01-15T17:05:58.212Z,6.28
2023-01-15T17:08:41.245Z,5.15
2023-01-15T17:11:25.501Z,5.50
2023-01-15T17:14:07.131Z,4.68
2023-01-15T17:16:34.202Z,4.20
2023-01-15T17:19:07.400Z,1.23
2023-01-15T17:21:36.834Z,5.25
2023-01-15T17:24:07.034Z,1.73
2023-01-15T17:26:34.632Z,6.75
2023-01-15T17:29:01.777Z,92.10
2023-01-15T17:31:34.573Z,16.25
2023-01-15T17:34:03.988Z,38.08
2023-01-15T17:36:31.678Z,62.05
2023-01-15T17:38:58.893Z,7.40
2023-01-15T17:41:27.205Z,14.68
2023-01-15T17:43:54.559Z,4.88
2023-01-15T17:46:21.924Z,1.77
2023-01-15T17:48:49.219Z,2.53
2023-01-15T17:51:17.103Z,1.48
2023-01-15T17:53:44.612Z,1.95
2023-01-15T17:56:30.174Z,1.75
2023-01-15T18:02:06.099Z,6.78
2023-01-15T18:05:00.235Z,3.88
2023-01-15T18:07:34.054Z,2.00
2023-01-15T18:10:01.689Z,3.15
2023-01-15T18:12:29.076Z,4.80
2023-01-15T18:14:56.354Z,2.28
2023-01-15T18:17:23.642Z,2.55
2023-01-15T18:19:55.072Z,1.23
2023-01-15T18:22:23.030Z,0.57
2023-01-15T18:24:50.328Z,6.40
2023-01-15T18:27:17.947Z,3.63
2023-01-15T18:29:45.157Z,1.85
2023-01-15T18:32:12.480Z,1.45
2023-01-15T18:34:40.042Z,2.45
2023-01-15T18:37:07.447Z,2.00
2023-01-15T18:39:37.447Z,0.98
2023-01-15T18:42:05.486Z,1.23
2023-01-15T18:44:51.238Z,2.28
2023-01-15T18:47:18.503Z,3.53
2023-01-15T18:49:50.039Z,2.17
2023-01-15T18:52:36.667Z,4.07
2023-01-15T18:55:03.948Z,1.95
2023-01-15T18:57:33.537Z,1.17
2023-01-15T19:00:00.738Z,4.13
2023-01-15T19:02:27.987Z,6.13
2023-01-15T19:04:55.628Z,3.75
2023-01-15T19:07:26.044Z,2.05
2023-01-15T19:09:54.665Z,6.57
2023-01-15T19:12:23.816Z,4.53
2023-01-15T19:15:09.226Z,4.68
2023-01-15T19:17:54.807Z,4.30
2023-01-15T19:23:05.029Z,1.65
2023-01-15T19:25:42.189Z,3.40
2023-01-15T19:28:12.110Z,2.67
2023-01-15T19:30:40.038Z,5.45
2023-01-15T19:33:08.854Z,1.38
2023-01-15T19:35:38.153Z,0.80
2023-01-15T19:38:08.740Z,4.25
2023-01-15T19:40:40.867Z,1.17
2023-01-15T19:43:26.669Z,0.65
2023-01-15T19:48:58.251Z,1.33
2023-01-15T19:51:45.493Z,6.72
2023-01-15T19:54:12.807Z,2.35
2023-01-15T19:56:40.525Z,1.10
2023-01-15T19:59:08.439Z,2.65
2023-01-15T20:01:35.616Z,3.67
2023-01-15T20:04:02.927Z,5.53
2023-01-15T20:06:30.114Z,1.25
2023-01-15T20:08:57.278Z,4.88
2023-01-15T20:11:24.569Z,2.72
2023-01-15T20:13:54.484Z,4.03
2023-01-15T20:16:23.021Z,2.35
2023-01-15T20:18:51.408Z,1.77
2023-01-15T20:21:18.983Z,3.78
2023-01-15T20:23:46.684Z,5.50
2023-01-15T20:26:15.809Z,2.25
2023-01-15T20:28:43.590Z,2.88
2023-01-15T20:31:19.230Z,1.02
2023-01-15T20:33:47.511Z,1.63
2023-01-15T20:36:15.478Z,5.97
2023-01-15T20:38:42.838Z,6.93
2023-01-15T20:41:30.520Z,1.60
2023-01-15T20:44:16.308Z,1.85
2023-01-15T20:46:43.411Z,1.83
2023-01-15T20:49:27.453Z,1.95
2023-01-15T20:51:55.844Z,2.70
2023-01-15T20:54:26.624Z,1.80
2023-01-15T20:56:54.118Z,2.30
2023-01-15T20:59:21.493Z,1.73
2023-01-15T21:01:49.095Z,3.40
2023-01-15T21:04:16.355Z,2.35
2023-01-15T21:06:43.748Z,12.18
2023-01-15T21:09:10.927Z,3.13
2023-01-15T21:11:38.167Z,1.50
2023-01-15T21:14:05.525Z,4.10
2023-01-15T21:16:32.902Z,4.68
2023-01-15T21:19:01.484Z,6.35
2023-01-15T21:21:29.445Z,2.60
2023-01-15T21:23:59.591Z,1.33
2023-01-15T21:26:26.875Z,1.60
2023-01-15T21:28:58.397Z,1.10
2023-01-15T21:31:25.693Z,2.80
2023-01-15T21:33:54.654Z,208.27
2023-01-15T21:36:22.392Z,187.20
2023-01-15T21:38:55.092Z,20.75
2023-01-15T21:41:43.330Z,9.45
2023-01-15T21:44:36.471Z,6.88
2023-01-15T21:47:06.457Z,1.83
2023-01-15T21:49:34.188Z,8.80
2023-01-15T21:52:03.820Z,1.77
2023-01-15T21:54:31.641Z,4.72
2023-01-15T21:57:00.393Z,6.07
2023-01-15T21:59:28.095Z,4.60
2023-01-15T22:01:59.899Z,10.82
2023-01-15T22:04:28.791Z,9.20
2023-01-15T22:06:56.639Z,7.20
2023-01-15T22:09:24.058Z,13.25
2023-01-15T22:11:52.955Z,13.57
2023-01-15T22:14:31.511Z,3.08
2023-01-15T22:17:01.657Z,6.32
2023-01-15T22:19:31.196Z,2.83
2023-01-15T22:22:02.158Z,7.28
2023-01-15T22:24:31.824Z,4.72
2023-01-15T22:26:59.854Z,3.53
2023-01-15T22:29:29.929Z,7.32
2023-01-15T22:31:57.708Z,6.80
2023-01-15T22:34:27.407Z,36.10
2023-01-15T22:36:55.472Z,21.77
2023-01-15T22:39:24.237Z,17.15
2023-01-15T22:42:10.438Z,8.35
2023-01-15T22:44:38.268Z,17.35
2023-01-15T22:47:06.239Z,33.30
2023-01-15T22:49:33.601Z,73.85
2023-01-15T22:52:01.221Z,114.03
2023-01-15T22:54:28.726Z,78.78
2023-01-15T22:56:56.077Z,58.22
2023-01-15T22:59:24.439Z,45.63
2023-01-15T23:01:52.027Z,28.17
2023-01-15T23:04:22.566Z,13.07
2023-01-15T23:06:53.512Z,8.25
2023-01-15T23:09:22.459Z,3.80
2023-01-15T23:11:51.702Z,4.18
2023-01-15T23:14:21.515Z,5.22
2023-01-15T23:16:49.643Z,6.43
2023-01-15T23:19:18.029Z,6.05
2023-01-15T23:21:45.706Z,27.02
2023-01-15T23:24:12.955Z,45.20
2023-01-15T23:26:40.736Z,42.88
2023-01-15T23:29:08.072Z,51.28
2023-01-15T23:31:35.805Z,162.38
2023-01-15T23:34:02.941Z,76.13
2023-01-15T23:36:32.758Z,178.82
2023-01-15T23:39:00.090Z,88.30
2023-01-15T23:41:46.284Z,183.82
2023-01-15T23:44:35.147Z,212.25
2023-01-15T23:47:02.841Z,244.60
2023-01-15T23:49:30.097Z,143.40
2023-01-15T23:51:57.486Z,184.60
2023-01-15T23:54:29.020Z,125.45
2023-01-15T23:56:57.294Z,307.40
2023-01-15T23:59:25.121Z,343.48
